Time;durP1;ratioP1;P1;durP2;ratioP2;P2;SDS_P1;SDS_P2;PMS_P1;PMS_P2;Temp;Humidity;BMP_temperature;BMP_pressure;BME280_temperature;BME280_humidity;BME280_pressure;Samples;Min_cycle;Max_cycle;Signal;HPM_P1;HPM_P2
2020/12/05 00:02:01;;;;;;;8.43;4.00;;;3.30;99.90;;;;;;4998312;28;20485;-86
2020/12/05 00:04:27;;;;;;;7.00;4.23;;;3.20;99.90;;;;;;4998637;28;20454;-86
2020/12/05 00:06:54;;;;;;;7.80;4.13;;;3.10;99.90;;;;;;4998593;28;20788;-81
2020/12/05 00:09:20;;;;;;;7.60;4.43;;;3.10;99.90;;;;;;4998401;28;20807;-81
2020/12/05 00:11:47;;;;;;;6.27;3.97;;;3.00;99.90;;;;;;4998309;28;20819;-85
2020/12/05 00:14:14;;;;;;;7.67;4.20;;;3.10;99.90;;;;;;4998369;28;20981;-86
2020/12/05 00:16:40;;;;;;;7.80;4.50;;;3.10;99.90;;;;;;4998304;28;20508;-81
2020/12/05 00:19:06;;;;;;;5.17;4.50;;;3.10;99.90;;;;;;4998141;28;20857;-82
2020/12/05 00:21:33;;;;;;;6.37;4.27;;;3.00;99.90;;;;;;4998151;28;20497;-85
2020/12/05 00:23:59;;;;;;;6.53;4.20;;;2.90;99.90;;;;;;4998082;28;20476;-84
2020/12/05 00:26:26;;;;;;;5.57;3.70;;;2.80;99.90;;;;;;4997998;28;20529;-84
2020/12/05 00:28:53;;;;;;;8.37;4.53;;;2.70;99.90;;;;;;4998172;28;20529;-85
2020/12/05 00:31:20;;;;;;;7.83;4.00;;;2.70;99.90;;;;;;4997886;28;20972;-86
2020/12/05 00:33:47;;;;;;;7.67;4.90;;;2.60;99.90;;;;;;4998071;28;20449;-84
2020/12/05 00:36:16;;;;;;;8.67;4.40;;;2.60;99.90;;;;;;4997914;28;20522;-81
2020/12/05 00:38:43;;;;;;;7.37;4.37;;;2.50;99.90;;;;;;4997879;28;20498;-85
2020/12/05 00:41:10;;;;;;;7.37;4.20;;;2.50;99.90;;;;;;4997821;28;20458;-86
2020/12/05 00:43:37;;;;;;;6.53;4.07;;;2.50;99.90;;;;;;4997676;28;20448;-81
2020/12/05 00:46:05;;;;;;;6.93;4.00;;;2.50;99.90;;;;;;4997692;28;20437;-81
2020/12/05 00:48:31;;;;;;;5.73;4.20;;;2.60;99.90;;;;;;4997867;28;20434;-86
2020/12/05 00:50:58;;;;;;;11.60;5.20;;;2.60;99.90;;;;;;4997701;28;20874;-85
2020/12/05 00:53:24;;;;;;;6.23;4.43;;;2.60;99.90;;;;;;4997462;28;20471;-80
2020/12/05 00:55:51;;;;;;;7.40;4.73;;;2.80;99.90;;;;;;4998061;28;20464;-87
2020/12/05 00:58:17;;;;;;;12.83;4.67;;;2.90;99.90;;;;;;4997548;28;20488;-84
2020/12/05 01:00:44;;;;;;;8.13;4.40;;;3.00;99.90;;;;;;4997136;28;20472;-86
2020/12/05 01:03:11;;;;;;;6.23;4.40;;;3.20;99.90;;;;;;4979929;28;20485;-81
2020/12/05 01:05:37;;;;;;;9.37;4.47;;;3.40;99.90;;;;;;4997656;28;20917;-82
2020/12/05 01:08:05;;;;;;;8.40;4.37;;;3.50;99.90;;;;;;4997482;28;21029;-86
2020/12/05 01:10:32;;;;;;;9.90;4.57;;;3.50;99.90;;;;;;4996467;28;20529;-83
2020/12/05 01:13:01;;;;;;;8.53;3.73;;;3.60;99.90;;;;;;4997200;28;20442;-82
2020/12/05 01:15:27;;;;;;;6.53;4.30;;;3.70;99.90;;;;;;4997107;28;20441;-86
2020/12/05 01:17:54;;;;;;;5.50;3.77;;;3.70;99.90;;;;;;4997645;28;20961;-83
2020/12/05 01:20:22;;;;;;;5.90;3.80;;;3.70;99.90;;;;;;4997047;28;20480;-87
2020/12/05 01:22:48;;;;;;;7.07;4.33;;;3.80;99.90;;;;;;4996991;28;20451;-83
2020/12/05 01:25:15;;;;;;;5.63;3.70;;;3.80;99.90;;;;;;4999925;28;20533;-82
2020/12/05 01:27:43;;;;;;;7.47;3.40;;;3.80;99.90;;;;;;4999148;28;20426;-86
2020/12/05 01:30:10;;;;;;;4.30;3.40;;;3.80;99.90;;;;;;4997725;28;20524;-84
2020/12/05 01:32:36;;;;;;;7.23;3.47;;;3.90;99.90;;;;;;4996838;28;20454;-85
2020/12/05 01:35:02;;;;;;;7.03;3.80;;;3.90;99.90;;;;;;4996737;28;20434;-84
2020/12/05 01:37:30;;;;;;;7.10;3.13;;;4.10;99.90;;;;;;4996205;28;20482;-83
2020/12/05 01:39:56;;;;;;;4.87;3.37;;;4.10;99.90;;;;;;4996044;28;20941;-82
2020/12/05 01:42:22;;;;;;;3.80;3.20;;;4.10;99.90;;;;;;4996446;28;20442;-84
2020/12/05 01:44:49;;;;;;;10.33;3.30;;;4.20;99.90;;;;;;4996997;28;20446;-85
2020/12/05 01:47:16;;;;;;;5.60;2.90;;;4.20;99.90;;;;;;4996151;28;20806;-82
2020/12/05 01:49:42;;;;;;;6.00;3.10;;;4.30;99.90;;;;;;4996337;28;20441;-85
2020/12/05 01:52:09;;;;;;;3.20;2.83;;;4.30;99.90;;;;;;4996445;28;20426;-84
2020/12/05 01:54:37;;;;;;;4.80;3.37;;;4.40;99.90;;;;;;4996312;28;20427;-84
2020/12/05 01:57:05;;;;;;;4.40;3.07;;;4.40;99.90;;;;;;4996043;28;20477;-81
2020/12/05 01:59:32;;;;;;;7.60;3.03;;;4.30;99.90;;;;;;4996305;28;20533;-83
2020/12/05 02:02:01;;;;;;;5.60;3.07;;;4.30;99.90;;;;;;4996080;28;20993;-81
2020/12/05 02:04:28;;;;;;;6.80;3.03;;;4.40;99.90;;;;;;4996354;28;20215;-84
2020/12/05 02:07:13;;;;;;;5.37;2.80;;;4.50;99.90;;;;;;4995914;28;20445;-83
2020/12/05 02:09:45;;;;;;;4.67;2.63;;;4.60;99.90;;;;;;4995840;28;20438;-82
2020/12/05 02:12:19;;;;;;;4.07;2.60;;;4.50;99.90;;;;;;4996454;28;20446;-85
2020/12/05 02:14:48;;;;;;;2.77;2.40;;;4.50;99.90;;;;;;4995735;28;20445;-85
2020/12/05 02:17:15;;;;;;;5.43;3.00;;;4.50;99.90;;;;;;4995856;28;20897;-84
2020/12/05 02:19:46;;;;;;;3.73;3.13;;;4.60;99.90;;;;;;4995584;28;20434;-82
2020/12/05 02:22:18;;;;;;;5.63;2.60;;;4.60;99.90;;;;;;4995124;28;20935;-82
2020/12/05 02:24:48;;;;;;;3.73;2.43;;;4.60;99.90;;;;;;4995997;28;20434;-83
2020/12/05 02:27:15;;;;;;;5.07;2.77;;;4.50;99.90;;;;;;4995846;28;20445;-80
2020/12/05 02:29:42;;;;;;;3.77;2.67;;;4.40;99.90;;;;;;4995474;28;20450;-84
2020/12/05 02:32:08;;;;;;;3.33;2.50;;;4.50;99.90;;;;;;4995570;28;20454;-86
2020/12/05 02:34:35;;;;;;;4.03;2.50;;;4.60;99.90;;;;;;4995567;28;20517;-83
2020/12/05 02:37:10;;;;;;;2.83;2.53;;;4.60;99.90;;;;;;4995667;28;20889;-83
2020/12/05 02:39:39;;;;;;;5.20;2.90;;;4.50;99.90;;;;;;4995669;28;20197;-84
2020/12/05 02:42:10;;;;;;;3.30;2.80;;;4.60;99.90;;;;;;4995533;28;20216;-86
2020/12/05 02:44:44;;;;;;;7.23;3.17;;;4.60;99.90;;;;;;4995622;28;20433;-82
2020/12/05 02:47:11;;;;;;;4.57;2.80;;;4.60;99.90;;;;;;4978385;28;20204;-84
2020/12/05 02:49:37;;;;;;;3.10;2.67;;;4.60;99.90;;;;;;4995907;28;20204;-82
2020/12/05 02:52:04;;;;;;;4.33;2.87;;;4.60;99.90;;;;;;4995392;28;20199;-86
2020/12/05 02:54:31;;;;;;;4.03;2.70;;;4.90;99.90;;;;;;4995932;28;20448;-85
2020/12/05 02:56:58;;;;;;;4.47;2.97;;;4.90;99.90;;;;;;4995666;28;20856;-86
2020/12/05 02:59:26;;;;;;;3.97;2.83;;;4.90;99.90;;;;;;4995459;28;20236;-85
2020/12/05 03:01:52;;;;;;;3.20;2.60;;;5.00;99.90;;;;;;4995320;28;20536;-84
2020/12/05 03:04:18;;;;;;;5.27;2.80;;;4.90;99.90;;;;;;4995546;28;20192;-86
2020/12/05 03:06:45;;;;;;;4.57;3.03;;;5.10;99.90;;;;;;4995562;28;20672;-84
2020/12/05 03:09:11;;;;;;;3.20;2.30;;;5.10;99.90;;;;;;4995685;28;20450;-84
2020/12/05 03:11:37;;;;;;;3.47;2.47;;;5.20;99.90;;;;;;4995284;28;20220;-83
2020/12/05 03:14:04;;;;;;;4.40;2.87;;;5.10;99.90;;;;;;4995255;28;20555;-84
2020/12/05 03:16:31;;;;;;;3.43;2.60;;;5.10;99.90;;;;;;4995262;28;20244;-82
2020/12/05 03:18:57;;;;;;;3.67;2.37;;;5.10;99.90;;;;;;4995203;28;20709;-83
2020/12/05 03:21:24;;;;;;;4.17;2.80;;;5.10;99.90;;;;;;4994948;28;20228;-83
2020/12/05 03:23:51;;;;;;;2.77;2.57;;;5.10;99.90;;;;;;4995127;28;20189;-85
2020/12/05 03:26:17;;;;;;;2.80;2.60;;;5.40;99.90;;;;;;4994922;28;20215;-84
2020/12/05 03:28:44;;;;;;;4.63;2.93;;;5.30;99.90;;;;;;4995125;28;20202;-86
2020/12/05 03:31:20;;;;;;;4.33;2.63;;;5.20;99.90;;;;;;4995060;28;20247;-82
2020/12/05 03:33:47;;;;;;;4.60;3.23;;;5.20;99.90;;;;;;4994961;28;20231;-81
2020/12/05 03:36:13;;;;;;;3.13;2.73;;;5.10;99.90;;;;;;4994920;28;20211;-83
2020/12/05 03:38:46;;;;;;;3.50;2.87;;;5.20;99.90;;;;;;4995075;28;20310;-85
2020/12/05 03:41:13;;;;;;;5.80;2.97;;;5.20;99.90;;;;;;4995038;28;20953;-84
2020/12/05 03:43:39;;;;;;;5.80;3.30;;;5.30;99.90;;;;;;4995300;28;20549;-85
2020/12/05 03:46:06;;;;;;;3.93;2.70;;;5.30;99.90;;;;;;4995281;28;20211;-84
2020/12/05 03:48:33;;;;;;;3.50;2.80;;;5.40;99.90;;;;;;4995146;28;20201;-87
2020/12/05 03:51:00;;;;;;;5.97;2.70;;;5.30;99.90;;;;;;4994888;28;20220;-81
2020/12/05 03:53:27;;;;;;;3.87;2.63;;;5.20;99.90;;;;;;4994950;28;20209;-86
2020/12/05 03:55:54;;;;;;;6.93;3.07;;;5.20;99.90;;;;;;4994826;28;20204;-80
2020/12/05 03:58:21;;;;;;;5.47;3.13;;;5.20;99.90;;;;;;4995410;28;20317;-81
2020/12/05 04:00:47;;;;;;;6.03;3.10;;;5.20;99.90;;;;;;4994866;28;20239;-81
2020/12/05 04:03:13;;;;;;;4.67;3.10;;;5.20;99.90;;;;;;4994824;28;20319;-84
2020/12/05 04:05:40;;;;;;;3.93;3.13;;;5.30;99.90;;;;;;4994345;28;20208;-80
2020/12/05 04:08:07;;;;;;;6.43;3.30;;;5.40;99.90;;;;;;4994431;28;20197;-82
2020/12/05 04:10:33;;;;;;;6.80;3.00;;;5.40;99.90;;;;;;4994553;28;20221;-84
2020/12/05 04:13:00;;;;;;;5.50;3.30;;;5.60;99.90;;;;;;4994429;28;20193;-84
2020/12/05 04:15:26;;;;;;;5.60;3.10;;;5.60;99.90;;;;;;4994462;28;20197;-85
2020/12/05 04:17:53;;;;;;;7.23;3.70;;;5.50;99.90;;;;;;4977338;28;20231;-83
2020/12/05 04:20:20;;;;;;;7.63;3.30;;;5.40;99.90;;;;;;4994428;28;20225;-86
2020/12/05 04:22:46;;;;;;;4.63;3.27;;;5.40;99.90;;;;;;4994416;28;20434;-86
2020/12/05 04:25:14;;;;;;;4.27;3.63;;;5.40;99.90;;;;;;4994707;28;20203;-86
2020/12/05 04:27:40;;;;;;;4.37;3.13;;;5.40;99.90;;;;;;4994231;28;20449;-84
2020/12/05 04:30:06;;;;;;;3.53;3.33;;;5.40;99.90;;;;;;4994212;28;20232;-86
2020/12/05 04:32:33;;;;;;;6.97;3.90;;;5.40;99.90;;;;;;4977132;28;20481;-85
2020/12/05 04:34:59;;;;;;;4.93;3.67;;;5.50;99.90;;;;;;4977479;28;20434;-87
2020/12/05 04:37:26;;;;;;;4.33;4.00;;;5.60;99.90;;;;;;4994158;28;20538;-85
2020/12/05 04:39:52;;;;;;;4.57;3.97;;;5.60;99.90;;;;;;4977061;28;20466;-85
2020/12/05 04:42:20;;;;;;;5.23;3.77;;;5.40;99.90;;;;;;4994679;28;20223;-85
2020/12/05 04:44:47;;;;;;;5.77;4.57;;;5.30;99.90;;;;;;4978667;28;20431;-84
2020/12/05 04:47:16;;;;;;;8.87;5.37;;;5.30;99.90;;;;;;4997868;28;20442;-85
2020/12/05 04:49:43;;;;;;;4.80;4.23;;;5.40;99.90;;;;;;4997626;28;20434;-84
2020/12/05 04:52:21;;;;;;;5.00;4.50;;;5.40;99.90;;;;;;4980053;28;20925;-83
2020/12/05 04:54:51;;;;;;;5.00;4.50;;;5.40;99.90;;;;;;4997675;28;20787;-81
2020/12/05 04:57:23;;;;;;;6.47;4.40;;;5.30;99.90;;;;;;4997327;28;20925;-85
2020/12/05 04:59:51;;;;;;;8.50;5.00;;;5.30;99.90;;;;;;4997106;28;20492;-83
2020/12/05 05:02:20;;;;;;;6.13;4.60;;;5.30;99.90;;;;;;4996946;28;20236;-84
2020/12/05 05:04:49;;;;;;;5.40;4.90;;;5.20;99.90;;;;;;4997354;28;20442;-83
2020/12/05 05:07:16;;;;;;;6.53;4.47;;;5.20;99.90;;;;;;4997258;28;20439;-83
2020/12/05 05:09:52;;;;;;;5.27;4.67;;;5.10;99.90;;;;;;4997348;28;20204;-84
2020/12/05 05:12:27;;;;;;;5.10;4.60;;;5.20;99.90;;;;;;4997299;28;20289;-86
2020/12/05 05:14:54;;;;;;;5.63;4.87;;;5.30;99.90;;;;;;4997477;28;20952;-83
2020/12/05 05:17:20;;;;;;;5.13;4.47;;;5.30;99.90;;;;;;4998237;28;20438;-84
2020/12/05 05:19:47;;;;;;;4.63;4.23;;;5.30;99.90;;;;;;4997157;28;20494;-85
2020/12/05 05:22:19;;;;;;;4.70;4.30;;;5.30;99.90;;;;;;4996809;28;20224;-83
2020/12/05 05:25:00;;;;;;;4.43;4.07;;;5.10;99.90;;;;;;4997140;28;20461;-85
2020/12/05 05:27:27;;;;;;;5.73;4.10;;;5.20;99.90;;;;;;4996823;28;20449;-85
2020/12/05 05:29:54;;;;;;;4.33;3.97;;;5.20;99.90;;;;;;4996572;28;20448;-79
2020/12/05 05:32:26;;;;;;;5.57;4.60;;;5.00;99.90;;;;;;4996951;28;20549;-85
2020/12/05 05:35:10;;;;;;;6.03;4.30;;;5.00;99.90;;;;;;4996724;28;20434;-81
2020/12/05 05:37:36;;;;;;;4.70;4.23;;;4.90;99.90;;;;;;4996698;28;20531;-83
2020/12/05 05:40:05;;;;;;;4.70;4.27;;;4.80;99.90;;;;;;4996740;28;20458;-83
2020/12/05 05:42:34;;;;;;;4.43;4.13;;;4.70;99.90;;;;;;4996863;28;20446;-86
2020/12/05 05:45:17;;;;;;;5.23;4.10;;;4.80;99.90;;;;;;4997296;28;20435;-85
2020/12/05 05:47:44;;;;;;;6.97;3.90;;;4.80;99.90;;;;;;4996804;28;20922;-80
2020/12/05 05:50:24;;;;;;;6.03;3.83;;;4.90;99.90;;;;;;4996694;28;20466;-80
2020/12/05 05:52:56;;;;;;;4.17;3.87;;;5.00;99.90;;;;;;4996536;28;20443;-84
2020/12/05 05:55:37;;;;;;;4.20;3.80;;;5.10;99.90;;;;;;4979678;28;20501;-83
2020/12/05 05:58:05;;;;;;;4.87;4.37;;;5.20;99.90;;;;;;4996291;28;20561;-85
2020/12/05 06:00:36;;;;;;;5.03;3.90;;;5.00;99.90;;;;;;4995837;28;20466;-81
2020/12/05 06:03:15;;;;;;;4.03;3.73;;;4.90;99.90;;;;;;4995678;28;20997;-82
2020/12/05 06:05:44;;;;;;;5.47;4.13;;;4.90;99.90;;;;;;4995909;28;20937;-82
2020/12/05 06:08:18;;;;;;;4.00;3.70;;;4.90;99.90;;;;;;4979012;28;20446;-81
2020/12/05 06:10:55;;;;;;;4.00;3.57;;;4.80;99.90;;;;;;4995726;28;20838;-82
2020/12/05 06:13:25;;;;;;;4.57;3.77;;;4.80;99.90;;;;;;4995830;28;20462;-81
2020/12/05 06:15:51;;;;;;;5.07;3.80;;;4.80;99.90;;;;;;4996005;28;20517;-83
2020/12/05 06:18:18;;;;;;;8.47;7.60;;;4.90;99.90;;;;;;4995934;28;20497;-83
2020/12/05 06:20:46;;;;;;;4.27;3.87;;;5.00;99.90;;;;;;4995959;28;20844;-81
2020/12/05 06:23:20;;;;;;;5.93;3.67;;;5.00;99.90;;;;;;4995656;28;20453;-81
2020/12/05 06:25:51;;;;;;;4.78;4.35;;;5.00;99.90;;;;;;4994575;28;20905;-87
2020/12/05 06:28:20;;;;;;;8.30;4.00;;;5.10;99.90;;;;;;4996037;28;20248;-83
2020/12/05 06:30:47;;;;;;;4.70;3.67;;;5.10;99.90;;;;;;4995850;28;20465;-81
2020/12/05 06:33:43;;;;;;;3.83;3.53;;;5.00;99.90;;;;;;4995285;28;20442;-85
2020/12/05 06:36:35;;;;;;;4.97;3.60;;;4.70;99.90;;;;;;4993333;28;20453;-83
2020/12/05 06:39:16;;;;;;;3.47;3.23;;;4.60;99.90;;;;;;4995523;28;20489;-83
2020/12/05 06:41:45;;;;;;;5.43;3.40;;;4.40;99.90;;;;;;4995016;28;20473;-80
2020/12/05 06:44:16;;;;;;;5.13;3.20;;;4.30;99.90;;;;;;4995059;28;20517;-83
2020/12/05 06:46:52;;;;;;;4.57;3.40;;;4.30;99.90;;;;;;4994853;28;20458;-77
2020/12/05 06:49:45;;;;;;;4.27;3.40;;;4.30;99.90;;;;;;4995018;28;20448;-81
2020/12/05 06:52:40;;;;;;;5.40;3.10;;;4.40;99.90;;;;;;4994773;28;20442;-80
2020/12/05 06:55:30;;;;;;;8.83;3.97;;;4.20;99.90;;;;;;4995220;28;20474;-84
2020/12/05 06:58:05;;;;;;;9.48;8.30;;;4.10;99.90;;;;;;4994244;28;20484;-80
2020/12/05 07:00:36;;;;;;;10.00;7.80;;;4.20;99.90;;;;;;4994864;28;20230;-81
2020/12/05 07:03:05;;;;;;;4.13;3.83;;;4.20;99.90;;;;;;4995367;28;21031;-85
2020/12/05 07:05:37;;;;;;;6.40;4.67;;;4.10;99.90;;;;;;4996728;28;20442;-83
2020/12/05 07:08:22;;;;;;;6.63;4.30;;;4.20;99.90;;;;;;4995890;28;20451;-83
2020/12/05 07:10:53;;;;;;;4.40;3.87;;;4.30;99.90;;;;;;4994743;28;20468;-86
2020/12/05 07:13:21;;;;;;;5.47;3.73;;;4.30;99.90;;;;;;4995007;28;20801;-86
2020/12/05 07:15:48;;;;;;;5.77;3.60;;;4.30;99.90;;;;;;4994827;28;20445;-85
2020/12/05 07:18:27;;;;;;;7.27;3.37;;;4.20;99.90;;;;;;4977761;28;20474;-86
2020/12/05 07:20:57;;;;;;;13.53;4.30;;;4.30;99.90;;;;;;4994773;28;20458;-84
2020/12/05 07:23:23;;;;;;;4.43;4.00;;;4.30;99.90;;;;;;4994560;28;20905;-82
2020/12/05 07:25:50;;;;;;;4.77;3.77;;;4.30;99.90;;;;;;4995107;28;20450;-83
2020/12/05 07:28:17;;;;;;;9.07;4.30;;;4.40;99.90;;;;;;4994773;28;20933;-82
2020/12/05 07:30:44;;;;;;;6.53;4.03;;;4.50;99.90;;;;;;4994570;28;20465;-84
2020/12/05 07:33:13;;;;;;;8.03;4.00;;;4.60;99.90;;;;;;4994923;28;20897;-83
2020/12/05 07:35:41;;;;;;;3.57;3.27;;;4.60;99.90;;;;;;4994895;28;20451;-81
2020/12/05 07:38:15;;;;;;;4.73;3.60;;;4.70;99.90;;;;;;4994446;28;20248;-81
2020/12/05 07:40:41;;;;;;;5.60;3.57;;;4.70;99.90;;;;;;4994416;28;20466;-82
2020/12/05 07:43:19;;;;;;;4.67;3.03;;;4.90;99.90;;;;;;4994263;28;20445;-82
2020/12/05 07:45:47;;;;;;;5.33;3.40;;;4.90;99.90;;;;;;4994569;28;20449;-81
2020/12/05 07:48:16;;;;;;;3.70;3.00;;;4.90;99.90;;;;;;4995173;28;20563;-84
2020/12/05 07:50:44;;;;;;;8.50;3.00;;;4.90;99.90;;;;;;4995343;28;20528;-82
2020/12/05 07:53:37;;;;;;;3.30;2.93;;;5.10;99.90;;;;;;4994487;28;20431;-86
2020/12/05 07:56:39;;;;;;;6.70;2.97;;;5.20;99.90;;;;;;4967472;28;20227;-92
2020/12/05 07:59:05;;;;;;;4.70;3.23;;;5.20;99.90;;;;;;4996596;28;20512;-92
2020/12/05 08:04:56;;;;;;;3.07;2.57;;;5.10;99.90;;;;;;5009281;28;20197;-93
2020/12/05 08:16:53;;;;;;;3.37;2.47;;;5.10;99.90;;;;;;5004619;28;20201;-95
2020/12/05 08:33:00;;;;;;;5.67;2.57;;;5.40;99.90;;;;;;5008832;28;20524;-94
2020/12/05 08:35:57;;;;;;;2.67;2.33;;;5.40;99.90;;;;;;5006729;28;20466;-95
2020/12/05 08:41:47;;;;;;;5.77;3.20;;;5.50;99.90;;;;;;5001948;28;20231;-92
2020/12/05 08:49:51;;;;;;;4.80;2.77;;;5.50;99.90;;;;;;5009612;28;20215;-91
2020/12/05 08:52:24;;;;;;;6.50;2.87;;;5.50;99.90;;;;;;4991569;28;20197;-90
2020/12/05 08:54:52;;;;;;;2.60;2.40;;;5.60;99.90;;;;;;4978059;28;20209;-83
2020/12/05 08:57:26;;;;;;;5.33;3.03;;;5.60;99.90;;;;;;4981823;28;20197;-91
2020/12/05 09:00:04;;;;;;;11.10;3.20;;;5.60;99.90;;;;;;4985044;28;20217;-92
2020/12/05 09:02:37;;;;;;;7.53;2.13;;;5.70;99.90;;;;;;4986899;28;20324;-94
2020/12/05 09:05:04;;;;;;;5.73;2.60;;;5.70;99.90;;;;;;4982146;28;20244;-92
2020/12/05 09:07:31;;;;;;;3.92;2.50;;;5.70;99.90;;;;;;4982377;28;20519;-94
2020/12/05 09:09:58;;;;;;;8.13;2.60;;;5.70;99.90;;;;;;4967471;28;20599;-92
2020/12/05 09:12:40;;;;;;;3.47;2.37;;;5.70;99.90;;;;;;4986006;28;20267;-90
2020/12/05 09:15:08;;;;;;;5.23;2.40;;;5.80;99.90;;;;;;4982904;28;20627;-92
2020/12/05 09:17:40;;;;;;;3.87;2.30;;;5.60;99.90;;;;;;4984076;28;20229;-91
2020/12/05 09:20:17;;;;;;;2.17;1.93;;;5.70;99.90;;;;;;4983332;28;20754;-93
2020/12/05 09:22:51;;;;;;;17.30;3.03;;;5.80;99.90;;;;;;4985391;28;20217;-92
2020/12/05 09:35:16;;;;;;;4.27;2.80;;;6.10;99.90;;;;;;4985408;28;20225;-95
2020/12/05 09:38:22;;;;;;;7.07;2.63;;;6.10;99.90;;;;;;4985207;28;20209;-95
2020/12/05 09:40:49;;;;;;;10.20;2.67;;;6.10;99.90;;;;;;4984777;28;20229;-91
2020/12/05 09:43:17;;;;;;;5.10;2.40;;;6.00;99.90;;;;;;4979108;28;20288;-94
2020/12/05 09:45:43;;;;;;;5.87;2.60;;;6.10;99.90;;;;;;4977800;28;20209;-92
2020/12/05 09:48:10;;;;;;;5.40;2.13;;;6.30;99.90;;;;;;4960885;28;20205;-92
2020/12/05 09:50:37;;;;;;;2.73;2.50;;;6.40;99.90;;;;;;4978668;28;20237;-94
2020/12/05 09:53:03;;;;;;;8.97;2.33;;;6.30;99.90;;;;;;4979240;28;20213;-91
2020/12/05 09:55:30;;;;;;;3.33;1.90;;;6.30;99.90;;;;;;4979156;28;20244;-91
2020/12/05 09:57:57;;;;;;;2.37;1.80;;;6.40;99.90;;;;;;4977439;28;20233;-92
2020/12/05 10:00:24;;;;;;;7.33;2.70;;;6.30;99.90;;;;;;4977931;28;20271;-91
2020/12/05 10:02:51;;;;;;;7.97;2.70;;;6.40;99.90;;;;;;4977575;28;20260;-91
2020/12/05 10:05:17;;;;;;;4.97;2.10;;;6.30;99.90;;;;;;4978680;28;20293;-91
2020/12/05 10:07:44;;;;;;;4.57;2.17;;;6.20;99.90;;;;;;4977858;28;20205;-93
2020/12/05 10:10:11;;;;;;;7.63;2.30;;;6.20;99.90;;;;;;4979171;28;20273;-90
2020/12/05 10:12:44;;;;;;;4.17;1.80;;;6.30;99.90;;;;;;4963762;28;20209;-94
2020/12/05 10:15:16;;;;;;;4.80;1.87;;;6.20;99.90;;;;;;4979897;28;20209;-94
2020/12/05 10:17:43;;;;;;;10.63;1.97;;;6.40;99.90;;;;;;4979357;28;20217;-94
2020/12/05 10:20:10;;;;;;;4.77;1.40;;;6.40;99.90;;;;;;4980332;28;20260;-93
2020/12/05 10:25:33;;;;;;;2.40;2.10;;;6.50;99.90;;;;;;4987763;28;20205;-88
2020/12/05 10:28:00;;;;;;;6.37;2.17;;;6.50;99.90;;;;;;5031818;23;20240;-91
2020/12/05 10:30:30;;;;;;;5.00;1.80;;;6.60;99.90;;;;;;5020398;28;20227;-92
2020/12/05 10:32:57;;;;;;;5.23;1.83;;;6.70;99.90;;;;;;5018924;28;20256;-89
2020/12/05 10:35:23;;;;;;;1.57;1.30;;;6.90;99.90;;;;;;5020083;28;20210;-91
2020/12/05 10:37:50;;;;;;;2.33;1.40;;;6.90;99.90;;;;;;5019318;28;20295;-90
2020/12/05 10:40:16;;;;;;;3.53;1.60;;;6.80;99.90;;;;;;5015470;28;20245;-91
2020/12/05 10:42:43;;;;;;;1.87;1.43;;;7.00;99.90;;;;;;4979207;28;20686;-91
2020/12/05 10:45:09;;;;;;;6.43;1.80;;;6.90;99.90;;;;;;4996960;28;20223;-89
2020/12/05 10:47:37;;;;;;;4.13;1.50;;;7.00;99.90;;;;;;4996598;28;20219;-90
2020/12/05 10:50:03;;;;;;;2.33;1.37;;;7.00;99.90;;;;;;4998114;28;20582;-91
2020/12/05 10:52:30;;;;;;;3.50;1.50;;;7.00;99.90;;;;;;4996026;28;20283;-94
2020/12/05 10:54:57;;;;;;;7.07;1.60;;;7.00;99.90;;;;;;4996120;28;20196;-92
2020/12/05 10:57:23;;;;;;;2.10;1.60;;;7.00;99.90;;;;;;5003189;28;20236;-91
2020/12/05 10:59:52;;;;;;;5.00;1.50;;;7.10;99.90;;;;;;4996160;28;20253;-90
2020/12/05 11:02:18;;;;;;;2.23;1.43;;;7.10;99.90;;;;;;4996210;28;20208;-94
2020/12/05 11:04:46;;;;;;;2.87;1.60;;;7.20;99.90;;;;;;4996273;28;20239;-90
2020/12/05 11:07:12;;;;;;;2.67;1.70;;;7.10;99.90;;;;;;4996907;28;20255;-92
2020/12/05 11:09:40;;;;;;;3.13;1.50;;;7.20;99.90;;;;;;4996167;28;20228;-89
2020/12/05 11:12:06;;;;;;;2.70;1.40;;;7.20;99.90;;;;;;4978761;28;20288;-93
2020/12/05 11:14:32;;;;;;;2.47;1.20;;;7.20;99.90;;;;;;4996273;28;20299;-92
2020/12/05 11:16:59;;;;;;;11.70;1.60;;;7.20;99.90;;;;;;4995661;28;20216;-92
2020/12/05 11:19:25;;;;;;;2.30;1.80;;;7.40;99.90;;;;;;4995298;28;20319;-91
2020/12/05 11:21:53;;;;;;;3.27;1.90;;;7.50;99.90;;;;;;4995766;28;20315;-90
2020/12/05 11:24:19;;;;;;;4.83;1.53;;;7.50;99.90;;;;;;4995832;28;20727;-92
2020/12/05 11:26:47;;;;;;;1.80;1.23;;;7.40;99.90;;;;;;4995815;28;20293;-90
2020/12/05 11:29:13;;;;;;;8.07;1.70;;;7.30;99.90;;;;;;4995619;28;20282;-92
2020/12/05 11:31:40;;;;;;;3.73;1.47;;;7.30;99.90;;;;;;4995573;28;20307;-91
2020/12/05 11:34:06;;;;;;;1.50;1.30;;;7.30;99.90;;;;;;4995850;28;20698;-92
2020/12/05 11:36:32;;;;;;;3.47;1.50;;;7.30;99.90;;;;;;4998553;28;20200;-90
2020/12/05 11:39:00;;;;;;;4.23;1.27;;;7.20;99.90;;;;;;4997307;28;20230;-93
2020/12/05 11:41:26;;;;;;;4.70;1.80;;;7.30;99.90;;;;;;4997134;28;20229;-90
2020/12/05 11:43:52;;;;;;;1.40;1.30;;;7.40;99.90;;;;;;4995567;28;20204;-92
2020/12/05 11:46:19;;;;;;;3.87;1.90;;;7.40;99.90;;;;;;4995369;28;20227;-91
2020/12/05 11:48:45;;;;;;;2.30;1.33;;;7.40;99.90;;;;;;4996122;28;20200;-91
2020/12/05 11:51:12;;;;;;;5.10;1.83;;;7.40;99.90;;;;;;4996059;28;20247;-90
2020/12/05 11:53:38;;;;;;;1.70;1.60;;;7.40;99.90;;;;;;4997324;28;20651;-90
2020/12/05 11:56:06;;;;;;;2.33;1.60;;;7.30;99.90;;;;;;4999612;28;20204;-90
2020/12/05 11:58:32;;;;;;;3.30;1.53;;;7.30;99.90;;;;;;4999608;28;20636;-89
2020/12/05 12:00:59;;;;;;;5.00;1.70;;;7.50;99.90;;;;;;4999477;28;20247;-92
2020/12/05 12:03:25;;;;;;;7.17;2.13;;;7.70;99.90;;;;;;4999519;28;20217;-91
2020/12/05 12:05:52;;;;;;;3.00;1.30;;;7.90;99.90;;;;;;4999883;28;20200;-89
2020/12/05 12:08:19;;;;;;;2.27;1.40;;;8.00;99.90;;;;;;4999065;28;20215;-90
2020/12/05 12:10:45;;;;;;;4.33;1.60;;;7.90;99.90;;;;;;4999170;28;20250;-90
2020/12/05 12:13:12;;;;;;;1.93;1.30;;;8.00;99.90;;;;;;4999709;28;20204;-90
2020/12/05 12:15:39;;;;;;;3.93;1.70;;;7.70;99.90;;;;;;4998721;28;20295;-90
2020/12/05 12:18:05;;;;;;;2.87;1.40;;;7.70;99.90;;;;;;4998993;28;20208;-89
2020/12/05 12:20:32;;;;;;;1.47;1.20;;;7.90;99.90;;;;;;4998956;28;20232;-89
2020/12/05 12:22:58;;;;;;;4.57;1.43;;;8.00;99.90;;;;;;4999642;28;20196;-92
2020/12/05 12:25:24;;;;;;;7.50;1.20;;;8.10;99.90;;;;;;4998896;28;20201;-89
2020/12/05 12:27:51;;;;;;;4.13;1.30;;;8.10;99.90;;;;;;4998673;28;20236;-91
2020/12/05 12:30:18;;;;;;;1.97;1.70;;;8.00;99.90;;;;;;4998714;28;20221;-95
2020/12/05 12:32:45;;;;;;;1.63;1.10;;;8.00;99.90;;;;;;5000670;28;20231;-90
2020/12/05 12:35:11;;;;;;;4.97;1.40;;;7.90;99.90;;;;;;5000399;28;20200;-93
2020/12/05 12:37:38;;;;;;;3.63;1.07;;;7.80;99.90;;;;;;5000015;28;20605;-90
2020/12/05 12:40:04;;;;;;;5.83;1.13;;;7.80;99.90;;;;;;4998879;28;20236;-89
2020/12/05 12:42:32;;;;;;;2.23;1.13;;;7.60;99.90;;;;;;4999492;28;20197;-92
2020/12/05 12:45:10;;;;;;;1.90;1.30;;;7.70;99.90;;;;;;5026132;28;20203;-89
2020/12/05 12:47:47;;;;;;;4.37;1.23;;;7.60;99.90;;;;;;5037019;28;20188;-90
2020/12/05 12:50:13;;;;;;;1.83;1.40;;;7.60;99.90;;;;;;5027615;28;20230;-89
2020/12/05 12:52:44;;;;;;;1.83;1.00;;;7.60;99.90;;;;;;4996567;28;20196;-90
2020/12/05 12:55:13;;;;;;;5.33;1.00;;;7.60;99.90;;;;;;4995376;28;20635;-90
2020/12/05 12:57:52;;;;;;;3.10;1.00;;;7.50;99.90;;;;;;5011411;28;20222;-90
2020/12/05 13:00:19;;;;;;;1.00;1.00;;;7.50;99.90;;;;;;5041893;28;20777;-88
2020/12/05 13:02:47;;;;;;;1.90;1.30;;;7.50;99.90;;;;;;5040253;28;20274;-89
2020/12/05 13:05:13;;;;;;;3.60;0.90;;;7.60;99.90;;;;;;5038753;28;20623;-92
2020/12/05 13:07:42;;;;;;;1.77;0.90;;;7.50;99.90;;;;;;5040591;28;20650;-90
2020/12/05 13:10:09;;;;;;;4.00;1.10;;;7.50;99.90;;;;;;5039684;28;20309;-92
2020/12/05 13:12:35;;;;;;;1.10;1.00;;;7.50;99.90;;;;;;5037829;28;20207;-90
2020/12/05 13:15:03;;;;;;;1.80;0.80;;;7.50;99.90;;;;;;5038245;28;20215;-90
2020/12/05 13:17:29;;;;;;;5.23;0.97;;;7.50;99.90;;;;;;5038983;28;20196;-91
2020/12/05 13:19:56;;;;;;;1.03;0.93;;;7.60;99.90;;;;;;5039558;28;20337;-91
2020/12/05 13:22:23;;;;;;;1.50;1.10;;;7.50;99.90;;;;;;5038655;28;20199;-90
2020/12/05 13:24:51;;;;;;;3.80;1.10;;;7.60;99.90;;;;;;5039058;28;20211;-90
2020/12/05 13:27:18;;;;;;;1.80;0.90;;;7.60;99.90;;;;;;5039794;28;20255;-92
2020/12/05 13:29:45;;;;;;;0.90;0.83;;;7.50;99.90;;;;;;5041381;28;20289;-91
2020/12/05 13:32:13;;;;;;;1.40;0.90;;;7.70;99.90;;;;;;5041878;28;20266;-91
2020/12/05 13:34:39;;;;;;;0.80;0.80;;;7.80;99.90;;;;;;5021371;28;20733;-93
2020/12/05 13:37:07;;;;;;;2.47;0.97;;;7.80;99.90;;;;;;5037540;28;20207;-93
2020/12/05 13:39:34;;;;;;;3.40;1.33;;;7.80;99.90;;;;;;5037308;28;20241;-90
2020/12/05 13:42:00;;;;;;;0.80;0.80;;;7.80;99.90;;;;;;5038181;28;20231;-90
2020/12/05 13:44:27;;;;;;;3.27;0.83;;;7.70;99.90;;;;;;5038683;28;20266;-93
2020/12/05 13:46:55;;;;;;;0.93;0.83;;;7.60;99.90;;;;;;5037943;28;20213;-88
2020/12/05 13:49:21;;;;;;;3.23;0.90;;;7.60;99.90;;;;;;5037427;28;20584;-91
2020/12/05 13:52:01;;;;;;;1.27;0.70;;;7.50;99.90;;;;;;5039745;28;20710;-93
2020/12/05 13:55:05;;;;;;;1.80;0.93;;;7.60;99.90;;;;;;5080624;22;20299;-93
2020/12/05 13:57:31;;;;;;;3.40;1.10;;;7.70;99.90;;;;;;5022669;28;20192;-92